sensor_id;sensor_type;location;lat;lon;timestamp;pressure;altitude;pressure_sealevel;temperature;humidity
50105;BME280;47690;39.202;-77.198;2023-01-25T00:00:11;100912.81;;;31.89;8.48
50105;BME280;47690;39.202;-77.198;2023-01-25T00:04:18;100910.31;;;32.34;8.21
50105;BME280;47690;39.202;-77.198;2023-01-25T00:08:06;100904.44;;;32.66;7.93
50105;BME280;47690;39.202;-77.198;2023-01-25T00:11:20;100906.06;;;32.41;8.19
50105;BME280;47690;39.202;-77.198;2023-01-25T00:14:28;100911.56;;;32.29;8.05
50105;BME280;47690;39.202;-77.198;2023-01-25T00:18:50;100914.75;;;32.43;7.58
50105;BME280;47690;39.202;-77.198;2023-01-25T00:22:51;100923.44;;;32.45;8.13
50105;BME280;47690;39.202;-77.198;2023-01-25T00:26:10;100921.22;;;32.40;7.56
50105;BME280;47690;39.202;-77.198;2023-01-25T00:29:02;100923.47;;;32.07;7.89
50105;BME280;47690;39.202;-77.198;2023-01-25T00:35:55;100925.19;;;32.08;8.05
50105;BME280;47690;39.202;-77.198;2023-01-25T00:39:13;100927.06;;;31.88;8.29
50105;BME280;47690;39.202;-77.198;2023-01-25T00:42:20;100924.19;;;31.71;8.29
50105;BME280;47690;39.202;-77.198;2023-01-25T01:02:16;100969.81;;;31.39;8.31
50105;BME280;47690;39.202;-77.198;2023-01-25T01:07:00;100986.91;;;31.26;8.34
50105;BME280;47690;39.202;-77.198;2023-01-25T01:10:49;100999.19;;;30.98;8.46
50105;BME280;47690;39.202;-77.198;2023-01-25T01:21:59;101045.28;;;30.57;8.50
50105;BME280;47690;39.202;-77.198;2023-01-25T01:32:05;101061.38;;;30.97;8.39
50105;BME280;47690;39.202;-77.198;2023-01-25T01:36:26;101055.72;;;30.70;8.56
50105;BME280;47690;39.202;-77.198;2023-01-25T01:41:19;101076.41;;;30.35;8.63
50105;BME280;47690;39.202;-77.198;2023-01-25T01:48:06;101080.75;;;29.94;8.75
50105;BME280;47690;39.202;-77.198;2023-01-25T01:50:41;101078.03;;;29.84;8.87
50105;BME280;47690;39.202;-77.198;2023-01-25T01:53:16;101066.72;;;29.82;8.81
50105;BME280;47690;39.202;-77.198;2023-01-25T01:55:49;101062.31;;;29.71;8.66
50105;BME280;47690;39.202;-77.198;2023-01-25T01:58:21;101069.69;;;29.67;9.09
50105;BME280;47690;39.202;-77.198;2023-01-25T02:01:00;101081.47;;;29.53;8.89
50105;BME280;47690;39.202;-77.198;2023-01-25T02:03:33;101089.31;;;29.43;9.18
50105;BME280;47690;39.202;-77.198;2023-01-25T02:06:19;101091.81;;;29.45;9.24
50105;BME280;47690;39.202;-77.198;2023-01-25T02:08:52;101088.06;;;29.59;8.89
50105;BME280;47690;39.202;-77.198;2023-01-25T02:11:26;101082.75;;;29.59;8.82
50105;BME280;47690;39.202;-77.198;2023-01-25T02:14:04;101080.16;;;29.48;8.64
50105;BME280;47690;39.202;-77.198;2023-01-25T02:16:36;101068.63;;;29.26;8.91
50105;BME280;47690;39.202;-77.198;2023-01-25T02:19:20;101059.25;;;29.10;9.50
50105;BME280;47690;39.202;-77.198;2023-01-25T02:22:06;101062.06;;;29.09;9.00
50105;BME280;47690;39.202;-77.198;2023-01-25T02:30:53;101041.06;;;29.38;9.02
50105;BME280;47690;39.202;-77.198;2023-01-25T02:33:46;101045.03;;;29.11;9.32
50105;BME280;47690;39.202;-77.198;2023-01-25T02:36:23;101036.75;;;28.93;9.38
50105;BME280;47690;39.202;-77.198;2023-01-25T02:39:06;101029.19;;;28.77;9.62
50105;BME280;47690;39.202;-77.198;2023-01-25T02:41:53;101027.16;;;28.69;9.21
50105;BME280;47690;39.202;-77.198;2023-01-25T02:44:34;101020.88;;;28.82;9.13
50105;BME280;47690;39.202;-77.198;2023-01-25T02:47:13;101033.50;;;28.89;8.98
50105;BME280;47690;39.202;-77.198;2023-01-25T02:49:49;101044.13;;;28.89;9.24
50105;BME280;47690;39.202;-77.198;2023-01-25T02:52:33;101050.75;;;28.84;9.24
50105;BME280;47690;39.202;-77.198;2023-01-25T02:55:09;101046.78;;;28.78;9.04
50105;BME280;47690;39.202;-77.198;2023-01-25T02:57:43;101047.16;;;28.85;8.83
50105;BME280;47690;39.202;-77.198;2023-01-25T03:00:17;101047.00;;;28.75;9.40
50105;BME280;47690;39.202;-77.198;2023-01-25T03:02:52;101050.78;;;28.72;8.93
50105;BME280;47690;39.202;-77.198;2023-01-25T03:05:29;101056.19;;;28.71;9.42
50105;BME280;47690;39.202;-77.198;2023-01-25T03:08:08;101065.81;;;28.72;9.54
50105;BME280;47690;39.202;-77.198;2023-01-25T03:10:41;101060.91;;;28.44;9.07
50105;BME280;47690;39.202;-77.198;2023-01-25T03:13:11;101054.75;;;28.32;9.62
50105;BME280;47690;39.202;-77.198;2023-01-25T03:15:42;101046.06;;;28.30;9.20
50105;BME280;47690;39.202;-77.198;2023-01-25T03:18:16;101045.34;;;28.28;9.67
50105;BME280;47690;39.202;-77.198;2023-01-25T03:20:49;101034.84;;;28.15;9.63
50105;BME280;47690;39.202;-77.198;2023-01-25T03:23:20;101030.03;;;28.09;9.79
50105;BME280;47690;39.202;-77.198;2023-01-25T03:25:51;101029.16;;;28.08;9.65
50105;BME280;47690;39.202;-77.198;2023-01-25T03:28:21;101026.66;;;28.07;9.34
50105;BME280;47690;39.202;-77.198;2023-01-25T03:31:01;101018.22;;;28.02;9.80
50105;BME280;47690;39.202;-77.198;2023-01-25T03:33:33;101014.13;;;27.98;9.53
50105;BME280;47690;39.202;-77.198;2023-01-25T03:36:05;101011.25;;;28.01;9.31
50105;BME280;47690;39.202;-77.198;2023-01-25T03:38:40;101008.97;;;27.96;9.47
50105;BME280;47690;39.202;-77.198;2023-01-25T03:41:12;101007.88;;;27.99;9.92
50105;BME280;47690;39.202;-77.198;2023-01-25T03:43:45;100988.09;;;28.83;9.38
50105;BME280;47690;39.202;-77.198;2023-01-25T03:46:17;100978.88;;;28.43;9.40
50105;BME280;47690;39.202;-77.198;2023-01-25T03:48:51;100976.00;;;28.23;9.84
50105;BME280;47690;39.202;-77.198;2023-01-25T03:51:22;100975.13;;;28.11;9.27
50105;BME280;47690;39.202;-77.198;2023-01-25T03:54:00;100978.03;;;28.08;9.37
50105;BME280;47690;39.202;-77.198;2023-01-25T03:56:36;100979.34;;;28.14;9.30
50105;BME280;47690;39.202;-77.198;2023-01-25T03:59:26;100969.00;;;28.11;9.40
50105;BME280;47690;39.202;-77.198;2023-01-25T04:02:08;100951.56;;;28.08;9.78
50105;BME280;47690;39.202;-77.198;2023-01-25T04:04:40;100954.94;;;27.99;9.36
50105;BME280;47690;39.202;-77.198;2023-01-25T04:07:15;100939.97;;;27.98;9.57
50105;BME280;47690;39.202;-77.198;2023-01-25T04:09:45;100946.50;;;27.93;9.33
50105;BME280;47690;39.202;-77.198;2023-01-25T04:12:18;100943.59;;;27.85;9.75
50105;BME280;47690;39.202;-77.198;2023-01-25T04:14:50;100936.03;;;27.80;9.32
50105;BME280;47690;39.202;-77.198;2023-01-25T04:17:26;100924.47;;;27.81;9.59
50105;BME280;47690;39.202;-77.198;2023-01-25T04:20:09;100924.47;;;27.70;9.67
50105;BME280;47690;39.202;-77.198;2023-01-25T04:22:41;100914.38;;;27.75;9.91
50105;BME280;47690;39.202;-77.198;2023-01-25T04:25:11;100919.06;;;27.72;10.09
50105;BME280;47690;39.202;-77.198;2023-01-25T04:27:49;100926.38;;;27.68;9.55
50105;BME280;47690;39.202;-77.198;2023-01-25T04:30:21;100926.53;;;27.78;9.59
50105;BME280;47690;39.202;-77.198;2023-01-25T04:32:52;100930.59;;;27.71;9.60
50105;BME280;47690;39.202;-77.198;2023-01-25T04:35:31;100928.91;;;27.58;9.85
50105;BME280;47690;39.202;-77.198;2023-01-25T04:38:03;100917.84;;;27.64;9.90
50105;BME280;47690;39.202;-77.198;2023-01-25T04:40:40;100912.19;;;27.58;9.85
50105;BME280;47690;39.202;-77.198;2023-01-25T04:43:16;100917.41;;;27.46;9.56
50105;BME280;47690;39.202;-77.198;2023-01-25T04:45:48;100910.31;;;27.35;9.57
50105;BME280;47690;39.202;-77.198;2023-01-25T04:48:31;100897.19;;;27.34;10.10
50105;BME280;47690;39.202;-77.198;2023-01-25T04:51:08;100900.44;;;27.26;10.12
50105;BME280;47690;39.202;-77.198;2023-01-25T04:53:37;100894.53;;;27.22;9.98
50105;BME280;47690;39.202;-77.198;2023-01-25T04:56:09;100894.19;;;27.27;9.90
50105;BME280;47690;39.202;-77.198;2023-01-25T04:58:48;100903.66;;;27.18;9.82
50105;BME280;47690;39.202;-77.198;2023-01-25T05:01:17;100909.53;;;27.10;9.98
50105;BME280;47690;39.202;-77.198;2023-01-25T05:03:49;100912.59;;;27.29;9.70
50105;BME280;47690;39.202;-77.198;2023-01-25T05:06:35;100913.88;;;28.27;9.49
50105;BME280;47690;39.202;-77.198;2023-01-25T05:09:09;100924.84;;;27.77;9.55
50105;BME280;47690;39.202;-77.198;2023-01-25T05:11:42;100932.16;;;27.62;9.66
50105;BME280;47690;39.202;-77.198;2023-01-25T05:14:25;100949.25;;;27.69;9.38
50105;BME280;47690;39.202;-77.198;2023-01-25T05:17:01;100935.66;;;27.62;9.98
50105;BME280;47690;39.202;-77.198;2023-01-25T05:19:32;100934.91;;;27.60;9.74
50105;BME280;47690;39.202;-77.198;2023-01-25T05:22:12;100928.06;;;27.58;10.14
50105;BME280;47690;39.202;-77.198;2023-01-25T05:24:48;100939.59;;;27.57;9.72
50105;BME280;47690;39.202;-77.198;2023-01-25T05:27:20;100926.31;;;27.45;9.79
50105;BME280;47690;39.202;-77.198;2023-01-25T05:29:56;100919.91;;;27.36;9.59
50105;BME280;47690;39.202;-77.198;2023-01-25T05:32:49;100911.16;;;27.36;9.91
50105;BME280;47690;39.202;-77.198;2023-01-25T05:35:30;100902.84;;;27.29;9.71
50105;BME280;47690;39.202;-77.198;2023-01-25T05:38:03;100895.59;;;27.20;9.74
50105;BME280;47690;39.202;-77.198;2023-01-25T05:40:36;100900.44;;;27.26;9.56
50105;BME280;47690;39.202;-77.198;2023-01-25T05:43:08;100907.69;;;27.47;9.68
50105;BME280;47690;39.202;-77.198;2023-01-25T05:45:41;100940.69;;;26.94;10.35
50105;BME280;47690;39.202;-77.198;2023-01-25T05:48:13;100950.09;;;26.98;10.32
50105;BME280;47690;39.202;-77.198;2023-01-25T05:50:44;100959.59;;;27.00;10.10
50105;BME280;47690;39.202;-77.198;2023-01-25T05:53:24;100966.22;;;27.06;10.39
50105;BME280;47690;39.202;-77.198;2023-01-25T05:56:05;100969.22;;;27.02;10.13
50105;BME280;47690;39.202;-77.198;2023-01-25T05:58:37;100979.28;;;26.96;9.89
50105;BME280;47690;39.202;-77.198;2023-01-25T06:01:08;100985.19;;;27.00;9.78
50105;BME280;47690;39.202;-77.198;2023-01-25T06:03:48;100988.59;;;27.13;10.12
50105;BME280;47690;39.202;-77.198;2023-01-25T06:06:17;100980.16;;;27.08;10.21
50105;BME280;47690;39.202;-77.198;2023-01-25T06:08:49;100964.03;;;27.00;10.22
50105;BME280;47690;39.202;-77.198;2023-01-25T06:11:23;100969.25;;;26.89;10.05
50105;BME280;47690;39.202;-77.198;2023-01-25T06:14:00;100966.81;;;26.85;10.33
50105;BME280;47690;39.202;-77.198;2023-01-25T06:16:33;100972.00;;;26.87;10.02
50105;BME280;47690;39.202;-77.198;2023-01-25T06:19:24;100945.66;;;26.85;10.11
50105;BME280;47690;39.202;-77.198;2023-01-25T06:22:16;100931.00;;;26.81;10.10
50105;BME280;47690;39.202;-77.198;2023-01-25T06:24:48;100926.38;;;26.72;10.08
50105;BME280;47690;39.202;-77.198;2023-01-25T06:27:20;100923.72;;;26.72;10.23
50105;BME280;47690;39.202;-77.198;2023-01-25T06:29:50;100920.59;;;26.67;10.20
50105;BME280;47690;39.202;-77.198;2023-01-25T06:32:21;100924.19;;;26.66;10.38
50105;BME280;47690;39.202;-77.198;2023-01-25T06:34:55;100917.78;;;26.81;9.99
50105;BME280;47690;39.202;-77.198;2023-01-25T06:37:29;100925.94;;;26.78;10.06
50105;BME280;47690;39.202;-77.198;2023-01-25T06:40:00;100940.19;;;26.76;9.99
50105;BME280;47690;39.202;-77.198;2023-01-25T06:42:31;100932.78;;;26.81;10.20
50105;BME280;47690;39.202;-77.198;2023-01-25T06:45:02;100934.13;;;26.86;10.17
50105;BME280;47690;39.202;-77.198;2023-01-25T06:47:32;100940.09;;;26.77;10.26
50105;BME280;47690;39.202;-77.198;2023-01-25T06:50:02;100935.50;;;26.68;10.17
50105;BME280;47690;39.202;-77.198;2023-01-25T06:52:32;100917.72;;;26.70;10.21
50105;BME280;47690;39.202;-77.198;2023-01-25T06:55:07;100894.97;;;26.80;10.08
50105;BME280;47690;39.202;-77.198;2023-01-25T06:57:42;100885.84;;;26.84;10.09
50105;BME280;47690;39.202;-77.198;2023-01-25T07:00:14;100896.00;;;26.91;10.03
50105;BME280;47690;39.202;-77.198;2023-01-25T07:02:47;100909.13;;;27.04;10.31
50105;BME280;47690;39.202;-77.198;2023-01-25T07:05:17;100904.91;;;27.01;9.86
50105;BME280;47690;39.202;-77.198;2023-01-25T07:07:46;100908.78;;;27.08;9.86
50105;BME280;47690;39.202;-77.198;2023-01-25T07:10:16;100911.56;;;27.07;10.22
50105;BME280;47690;39.202;-77.198;2023-01-25T07:12:45;100914.81;;;27.10;9.84
50105;BME280;47690;39.202;-77.198;2023-01-25T07:15:17;100920.31;;;27.07;10.25
50105;BME280;47690;39.202;-77.198;2023-01-25T07:17:47;100912.63;;;27.04;10.06
50105;BME280;47690;39.202;-77.198;2023-01-25T07:20:17;100897.75;;;27.14;9.76
50105;BME280;47690;39.202;-77.198;2023-01-25T07:22:47;100901.81;;;27.07;10.14
50105;BME280;47690;39.202;-77.198;2023-01-25T07:25:17;100895.19;;;27.02;10.31
50105;BME280;47690;39.202;-77.198;2023-01-25T07:27:47;100882.22;;;26.85;10.34
50105;BME280;47690;39.202;-77.198;2023-01-25T07:30:17;100876.22;;;26.83;10.18
50105;BME280;47690;39.202;-77.198;2023-01-25T07:32:49;100873.16;;;26.90;10.38
50105;BME280;47690;39.202;-77.198;2023-01-25T07:35:20;100867.41;;;26.96;10.30
50105;BME280;47690;39.202;-77.198;2023-01-25T07:37:49;100864.84;;;27.19;10.30
50105;BME280;47690;39.202;-77.198;2023-01-25T07:40:19;100847.25;;;27.06;10.22
50105;BME280;47690;39.202;-77.198;2023-01-25T07:43:01;100855.63;;;27.00;10.66
50105;BME280;47690;39.202;-77.198;2023-01-25T07:45:33;100868.84;;;27.00;10.25
50105;BME280;47690;39.202;-77.198;2023-01-25T07:48:08;100880.78;;;27.06;10.53
50105;BME280;47690;39.202;-77.198;2023-01-25T07:50:41;100888.13;;;27.13;10.39
50105;BME280;47690;39.202;-77.198;2023-01-25T07:53:12;100881.53;;;27.19;10.42
50105;BME280;47690;39.202;-77.198;2023-01-25T07:55:43;100890.84;;;27.48;10.32
50105;BME280;47690;39.202;-77.198;2023-01-25T07:58:15;100916.53;;;27.59;10.46
50105;BME280;47690;39.202;-77.198;2023-01-25T08:00:46;100941.66;;;27.64;10.30
50105;BME280;47690;39.202;-77.198;2023-01-25T08:03:20;100936.13;;;27.67;9.99
50105;BME280;47690;39.202;-77.198;2023-01-25T08:05:50;100949.88;;;27.84;10.39
50105;BME280;47690;39.202;-77.198;2023-01-25T08:08:52;100960.94;;;28.12;10.29
50105;BME280;47690;39.202;-77.198;2023-01-25T08:11:47;100941.31;;;28.03;10.24
50105;BME280;47690;39.202;-77.198;2023-01-25T08:14:21;100958.28;;;28.01;10.07
50105;BME280;47690;39.202;-77.198;2023-01-25T08:17:04;100968.41;;;28.07;9.94
50105;BME280;47690;39.202;-77.198;2023-01-25T08:19:35;100945.63;;;28.16;10.39
50105;BME280;47690;39.202;-77.198;2023-01-25T08:22:08;100964.47;;;28.24;10.14
50105;BME280;47690;39.202;-77.198;2023-01-25T08:24:38;100969.03;;;28.22;10.19
50105;BME280;47690;39.202;-77.198;2023-01-25T08:27:15;100963.25;;;28.17;10.07
50105;BME280;47690;39.202;-77.198;2023-01-25T08:29:49;100964.69;;;28.21;10.43
50105;BME280;47690;39.202;-77.198;2023-01-25T08:32:19;100945.19;;;28.22;9.90
50105;BME280;47690;39.202;-77.198;2023-01-25T08:34:50;100950.72;;;28.19;10.14
50105;BME280;47690;39.202;-77.198;2023-01-25T08:37:20;100968.53;;;28.28;10.57
50105;BME280;47690;39.202;-77.198;2023-01-25T08:39:50;100977.19;;;28.30;10.56
50105;BME280;47690;39.202;-77.198;2023-01-25T08:42:27;100973.59;;;28.43;10.12
50105;BME280;47690;39.202;-77.198;2023-01-25T08:45:00;100962.38;;;28.39;10.48
50105;BME280;47690;39.202;-77.198;2023-01-25T08:47:32;100956.44;;;28.70;9.83
50105;BME280;47690;39.202;-77.198;2023-01-25T08:50:02;100965.94;;;29.38;9.71
50105;BME280;47690;39.202;-77.198;2023-01-25T08:52:33;100959.97;;;29.57;9.87
50105;BME280;47690;39.202;-77.198;2023-01-25T08:55:04;100966.03;;;29.69;9.70
50105;BME280;47690;39.202;-77.198;2023-01-25T08:57:36;100984.34;;;29.72;9.62
50105;BME280;47690;39.202;-77.198;2023-01-25T09:00:08;100986.75;;;29.75;9.49
50105;BME280;47690;39.202;-77.198;2023-01-25T09:02:41;100987.13;;;29.70;9.39
50105;BME280;47690;39.202;-77.198;2023-01-25T09:05:12;100983.19;;;29.65;9.72
50105;BME280;47690;39.202;-77.198;2023-01-25T09:07:42;101009.50;;;29.68;9.67
50105;BME280;47690;39.202;-77.198;2023-01-25T09:10:17;101017.38;;;29.79;9.59
50105;BME280;47690;39.202;-77.198;2023-01-25T09:12:48;101001.84;;;29.75;9.29
50105;BME280;47690;39.202;-77.198;2023-01-25T09:15:17;101022.09;;;29.54;9.48
50105;BME280;47690;39.202;-77.198;2023-01-25T09:17:51;100995.66;;;29.74;9.88
50105;BME280;47690;39.202;-77.198;2023-01-25T09:20:23;100944.22;;;28.90;10.17
50105;BME280;47690;39.202;-77.198;2023-01-25T09:23:03;100957.56;;;29.54;9.90
50105;BME280;47690;39.202;-77.198;2023-01-25T09:25:33;100977.47;;;29.69;9.49
50105;BME280;47690;39.202;-77.198;2023-01-25T09:28:08;100980.59;;;29.75;9.31
50105;BME280;47690;39.202;-77.198;2023-01-25T09:30:41;100965.63;;;29.74;9.59
50105;BME280;47690;39.202;-77.198;2023-01-25T09:33:35;100988.69;;;29.73;9.98
50105;BME280;47690;39.202;-77.198;2023-01-25T09:36:06;100978.03;;;29.30;9.78
50105;BME280;47690;39.202;-77.198;2023-01-25T09:38:38;100965.06;;;28.83;10.33
50105;BME280;47690;39.202;-77.198;2023-01-25T09:41:40;100969.44;;;28.84;10.35
50105;BME280;47690;39.202;-77.198;2023-01-25T09:47:19;100969.31;;;28.74;10.09
50105;BME280;47690;39.202;-77.198;2023-01-25T09:50:19;100967.84;;;28.82;10.51
50105;BME280;47690;39.202;-77.198;2023-01-25T09:56:01;100966.22;;;28.58;10.66
50105;BME280;47690;39.202;-77.198;2023-01-25T09:58:43;100978.56;;;28.80;10.69
50105;BME280;47690;39.202;-77.198;2023-01-25T10:01:48;100956.09;;;29.07;10.62
50105;BME280;47690;39.202;-77.198;2023-01-25T10:04:28;100936.16;;;28.92;10.04
50105;BME280;47690;39.202;-77.198;2023-01-25T10:07:25;100896.50;;;28.90;10.45
50105;BME280;47690;39.202;-77.198;2023-01-25T10:13:10;100833.72;;;28.90;10.29
50105;BME280;47690;39.202;-77.198;2023-01-25T10:15:49;100814.00;;;28.51;10.66
50105;BME280;47690;39.202;-77.198;2023-01-25T10:18:40;100786.66;;;28.71;10.93
50105;BME280;47690;39.202;-77.198;2023-01-25T10:21:44;100727.34;;;28.62;11.03
50105;BME280;47690;39.202;-77.198;2023-01-25T10:30:38;100599.47;;;28.39;11.01
50105;BME280;47690;39.202;-77.198;2023-01-25T10:33:21;100607.75;;;28.46;11.25
50105;BME280;47690;39.202;-77.198;2023-01-25T10:41:52;100671.34;;;28.56;10.82
50105;BME280;47690;39.202;-77.198;2023-01-25T10:44:50;100713.28;;;28.29;10.93
50105;BME280;47690;39.202;-77.198;2023-01-25T10:47:39;100748.66;;;28.61;10.52
50105;BME280;47690;39.202;-77.198;2023-01-25T10:50:54;100773.69;;;28.89;10.71
50105;BME280;47690;39.202;-77.198;2023-01-25T10:54:25;100795.88;;;29.10;10.54
50105;BME280;47690;39.202;-77.198;2023-01-25T10:57:01;100814.38;;;29.00;10.79
50105;BME280;47690;39.202;-77.198;2023-01-25T10:59:38;100822.22;;;29.01;10.40
50105;BME280;47690;39.202;-77.198;2023-01-25T11:02:39;100805.28;;;29.24;10.44
50105;BME280;47690;39.202;-77.198;2023-01-25T11:06:06;100762.50;;;28.86;10.69
50105;BME280;47690;39.202;-77.198;2023-01-25T11:12:05;100778.13;;;29.41;10.39
50105;BME280;47690;39.202;-77.198;2023-01-25T11:14:49;100789.72;;;29.40;10.26
50105;BME280;47690;39.202;-77.198;2023-01-25T11:17:33;100805.84;;;28.96;10.56
50105;BME280;47690;39.202;-77.198;2023-01-25T11:20:20;100791.94;;;29.35;10.67
50105;BME280;47690;39.202;-77.198;2023-01-25T11:22:54;100811.06;;;30.40;9.85
50105;BME280;47690;39.202;-77.198;2023-01-25T11:25:49;100813.47;;;30.83;9.71
50105;BME280;47690;39.202;-77.198;2023-01-25T11:28:34;100802.69;;;30.94;9.46
50105;BME280;47690;39.202;-77.198;2023-01-25T11:31:21;100802.34;;;31.07;9.53
50105;BME280;47690;39.202;-77.198;2023-01-25T11:33:52;100788.06;;;31.08;9.33
50105;BME280;47690;39.202;-77.198;2023-01-25T11:57:07;100668.00;;;31.50;9.33
50105;BME280;47690;39.202;-77.198;2023-01-25T12:14:25;100685.09;;;29.23;10.30
50105;BME280;47690;39.202;-77.198;2023-01-25T12:17:40;100667.53;;;29.42;10.19
50105;BME280;47690;39.202;-77.198;2023-01-25T12:21:11;100682.88;;;29.38;10.38
50105;BME280;47690;39.202;-77.198;2023-01-25T12:31:49;100712.31;;;29.66;10.34
50105;BME280;47690;39.202;-77.198;2023-01-25T12:36:09;100703.88;;;29.51;10.39
50105;BME280;47690;39.202;-77.198;2023-01-25T12:42:54;100671.16;;;29.41;10.61
50105;BME280;47690;39.202;-77.198;2023-01-25T12:55:03;100659.50;;;29.63;10.10
50105;BME280;47690;39.202;-77.198;2023-01-25T12:58:19;100658.44;;;29.35;10.57
50105;BME280;47690;39.202;-77.198;2023-01-25T13:01:52;100645.81;;;29.48;10.61
50105;BME280;47690;39.202;-77.198;2023-01-25T13:14:35;100666.47;;;29.54;10.11
50105;BME280;47690;39.202;-77.198;2023-01-25T13:19:16;100703.09;;;29.61;10.29
50105;BME280;47690;39.202;-77.198;2023-01-25T13:25:19;100760.97;;;29.87;10.18
50105;BME280;47690;39.202;-77.198;2023-01-25T13:42:38;100760.34;;;31.49;9.24
50105;BME280;47690;39.202;-77.198;2023-01-25T13:45:38;100723.66;;;31.43;9.24
50105;BME280;47690;39.202;-77.198;2023-01-25T13:49:26;100720.34;;;31.59;8.99
50105;BME280;47690;39.202;-77.198;2023-01-25T13:57:36;100750.00;;;31.64;9.01
50105;BME280;47690;39.202;-77.198;2023-01-25T14:01:20;100732.06;;;31.66;9.56
50105;BME280;47690;39.202;-77.198;2023-01-25T14:04:17;100702.22;;;31.62;9.62
50105;BME280;47690;39.202;-77.198;2023-01-25T14:07:00;100685.97;;;31.47;9.20
50105;BME280;47690;39.202;-77.198;2023-01-25T14:10:46;100684.56;;;31.43;9.56
50105;BME280;47690;39.202;-77.198;2023-01-25T14:13:25;100693.84;;;31.39;9.16
50105;BME280;47690;39.202;-77.198;2023-01-25T14:20:37;100641.81;;;31.27;9.18
50105;BME280;47690;39.202;-77.198;2023-01-25T14:23:46;100626.34;;;30.36;10.03
50105;BME280;47690;39.202;-77.198;2023-01-25T14:27:09;100601.53;;;29.98;10.03
50105;BME280;47690;39.202;-77.198;2023-01-25T14:30:36;100617.88;;;29.83;10.35
50105;BME280;47690;39.202;-77.198;2023-01-25T14:33:45;100631.41;;;30.77;10.14
50105;BME280;47690;39.202;-77.198;2023-01-25T14:41:42;100675.16;;;31.49;9.33
50105;BME280;47690;39.202;-77.198;2023-01-25T14:45:13;100711.28;;;31.52;9.31
50105;BME280;47690;39.202;-77.198;2023-01-25T14:51:49;100739.72;;;30.65;9.96
50105;BME280;47690;39.202;-77.198;2023-01-25T14:54:30;100670.59;;;30.65;9.85
50105;BME280;47690;39.202;-77.198;2023-01-25T15:02:50;100595.66;;;31.54;9.27
50105;BME280;47690;39.202;-77.198;2023-01-25T15:05:45;100580.06;;;31.78;9.31
50105;BME280;47690;39.202;-77.198;2023-01-25T15:08:42;100602.66;;;31.92;9.12
50105;BME280;47690;39.202;-77.198;2023-01-25T15:11:42;100593.19;;;31.89;9.63
50105;BME280;47690;39.202;-77.198;2023-01-25T15:14:50;100558.09;;;31.75;9.41
50105;BME280;47690;39.202;-77.198;2023-01-25T15:21:52;100579.81;;;30.60;10.15
50105;BME280;47690;39.202;-77.198;2023-01-25T15:25:10;100566.13;;;30.27;10.51
50105;BME280;47690;39.202;-77.198;2023-01-25T15:28:41;100554.53;;;30.18;10.58
50105;BME280;47690;39.202;-77.198;2023-01-25T15:31:35;100571.16;;;30.01;10.77
50105;BME280;47690;39.202;-77.198;2023-01-25T15:34:29;100564.78;;;31.25;10.15
50105;BME280;47690;39.202;-77.198;2023-01-25T15:37:17;100553.84;;;30.44;10.27
50105;BME280;47690;39.202;-77.198;2023-01-25T15:39:51;100569.34;;;31.15;10.05
50105;BME280;47690;39.202;-77.198;2023-01-25T15:43:22;100593.63;;;32.11;9.41
50105;BME280;47690;39.202;-77.198;2023-01-25T15:46:22;100630.13;;;31.56;9.90
50105;BME280;47690;39.202;-77.198;2023-01-25T15:49:54;100606.81;;;32.39;9.74
50105;BME280;47690;39.202;-77.198;2023-01-25T15:52:53;100564.09;;;32.30;9.31
50105;BME280;47690;39.202;-77.198;2023-01-25T15:59:54;100491.97;;;32.24;9.54
50105;BME280;47690;39.202;-77.198;2023-01-25T16:02:35;100439.88;;;31.95;9.86
50105;BME280;47690;39.202;-77.198;2023-01-25T16:06:00;100436.78;;;32.08;9.92
50105;BME280;47690;39.202;-77.198;2023-01-25T16:15:22;100428.63;;;31.30;10.10
50105;BME280;47690;39.202;-77.198;2023-01-25T16:20:09;100429.19;;;30.97;10.55
50105;BME280;47690;39.202;-77.198;2023-01-25T16:25:58;100431.97;;;31.50;10.69
50105;BME280;47690;39.202;-77.198;2023-01-25T16:31:32;100430.16;;;30.96;10.77
50105;BME280;47690;39.202;-77.198;2023-01-25T16:57:51;100327.72;;;30.84;11.00
50105;BME280;47690;39.202;-77.198;2023-01-25T17:07:06;100340.75;;;32.34;9.92
50105;BME280;47690;39.202;-77.198;2023-01-25T17:09:50;100330.72;;;32.11;10.23
50105;BME280;47690;39.202;-77.198;2023-01-25T17:15:03;100321.94;;;32.36;9.63
50105;BME280;47690;39.202;-77.198;2023-01-25T17:26:12;100299.97;;;32.83;10.49
50105;BME280;47690;39.202;-77.198;2023-01-25T17:45:29;100192.81;;;32.72;9.64
50105;BME280;47690;39.202;-77.198;2023-01-25T17:52:50;100114.97;;;32.76;10.05
50105;BME280;47690;39.202;-77.198;2023-01-25T17:57:40;100108.47;;;32.79;10.14
50105;BME280;47690;39.202;-77.198;2023-01-25T18:01:44;100085.00;;;32.66;10.08
50105;BME280;47690;39.202;-77.198;2023-01-25T18:04:49;100078.56;;;32.35;10.22
50105;BME280;47690;39.202;-77.198;2023-01-25T18:07:22;100071.31;;;32.12;10.51
50105;BME280;47690;39.202;-77.198;2023-01-25T18:09:56;100055.00;;;31.99;10.67
50105;BME280;47690;39.202;-77.198;2023-01-25T18:12:42;100025.69;;;31.99;10.81
50105;BME280;47690;39.202;-77.198;2023-01-25T18:15:34;100022.88;;;32.00;10.67
50105;BME280;47690;39.202;-77.198;2023-01-25T18:18:20;100031.72;;;32.01;10.85
50105;BME280;47690;39.202;-77.198;2023-01-25T18:21:35;100017.47;;;32.25;10.15
50105;BME280;47690;39.202;-77.198;2023-01-25T18:24:26;99995.47;;;32.32;10.55
50105;BME280;47690;39.202;-77.198;2023-01-25T18:27:09;99984.19;;;32.21;10.71
50105;BME280;47690;39.202;-77.198;2023-01-25T18:32:46;99971.03;;;32.20;10.71
50105;BME280;47690;39.202;-77.198;2023-01-25T18:35:34;99945.56;;;32.17;10.93
50105;BME280;47690;39.202;-77.198;2023-01-25T18:38:09;99925.91;;;32.18;10.50
50105;BME280;47690;39.202;-77.198;2023-01-25T18:40:50;99916.75;;;32.21;10.97